Time;durP1;ratioP1;P1;durP2;ratioP2;P2;SDS_P1;SDS_P2;PMS_P1;PMS_P2;Temp;Humidity;BMP_temperature;BMP_pressure;BME280_temperature;BME280_humidity;BME280_pressure;Samples;Min_cycle;Max_cycle;Signal;HPM_P1;HPM_P2
2022/07/16 00:01:23;;;;;;;1.75;0.50;;;11.90;99.90;;;;;;5000823;28;20449;-81
2022/07/16 00:03:58;;;;;;;2.40;0.68;;;11.70;99.90;;;;;;5011420;28;20387;-82
2022/07/16 00:06:28;;;;;;;5.43;0.70;;;11.80;99.90;;;;;;5011511;28;20801;-82
2022/07/16 00:08:56;;;;;;;2.90;0.90;;;11.80;99.90;;;;;;5011392;28;20398;-80
2022/07/16 00:11:23;;;;;;;1.30;0.60;;;11.70;99.90;;;;;;5015145;28;20395;-80
2022/07/16 00:13:51;;;;;;;3.22;0.55;;;11.50;99.90;;;;;;5014035;28;20739;-80
2022/07/16 00:16:19;;;;;;;3.00;0.60;;;11.30;99.90;;;;;;5015200;28;20513;-82
2022/07/16 00:21:33;;;;;;;2.95;0.60;;;11.40;99.90;;;;;;5014899;28;20407;-80
2022/07/16 00:24:00;;;;;;;0.77;0.53;;;11.50;99.90;;;;;;5014443;28;20899;-80
2022/07/16 00:26:28;;;;;;;3.67;0.65;;;11.30;99.90;;;;;;5014906;28;20418;-82
2022/07/16 00:28:56;;;;;;;1.92;0.60;;;11.30;99.90;;;;;;4997183;28;20734;-81
2022/07/16 00:31:23;;;;;;;4.30;0.70;;;11.40;99.90;;;;;;5014837;28;20398;-82
2022/07/16 00:33:51;;;;;;;2.35;0.60;;;11.40;99.90;;;;;;5013315;28;20586;-82
2022/07/16 00:36:18;;;;;;;2.97;0.50;;;11.40;99.90;;;;;;5029818;28;20743;-81
2022/07/16 00:38:46;;;;;;;2.75;0.60;;;11.40;99.90;;;;;;5014578;28;20403;-81
2022/07/16 00:41:17;;;;;;;3.33;0.50;;;11.50;99.90;;;;;;5014717;28;20387;-82
2022/07/16 00:43:56;;;;;;;3.28;0.60;;;11.60;99.90;;;;;;5014577;28;20853;-83
2022/07/16 00:46:24;;;;;;;1.90;0.70;;;11.40;99.90;;;;;;5014572;28;20391;-81
2022/07/16 00:48:51;;;;;;;1.27;0.57;;;11.50;99.90;;;;;;5014518;28;20395;-81
2022/07/16 00:51:19;;;;;;;1.88;0.63;;;11.40;99.90;;;;;;5014521;28;20993;-82
2022/07/16 00:53:46;;;;;;;5.57;0.63;;;11.30;99.90;;;;;;5014388;28;20937;-82
2022/07/16 00:56:15;;;;;;;2.03;0.70;;;11.30;99.90;;;;;;5012889;28;20433;-82
2022/07/16 00:58:45;;;;;;;2.00;0.50;;;11.30;99.90;;;;;;5029503;28;20410;-81
2022/07/16 01:01:13;;;;;;;1.35;0.55;;;11.20;99.90;;;;;;4994158;28;20757;-82
2022/07/16 01:03:42;;;;;;;3.33;0.70;;;11.20;99.90;;;;;;4994758;28;20747;-82
2022/07/16 01:06:11;;;;;;;3.10;0.60;;;11.40;99.90;;;;;;4977422;28;20462;-81
2022/07/16 01:08:42;;;;;;;1.25;0.65;;;11.20;99.90;;;;;;4994526;28;20466;-81
2022/07/16 01:11:17;;;;;;;2.53;0.60;;;11.30;99.90;;;;;;5009639;28;20385;-81
2022/07/16 01:13:47;;;;;;;1.02;0.40;;;11.30;99.90;;;;;;4976961;28;20791;-82
2022/07/16 01:16:16;;;;;;;1.58;0.50;;;11.30;99.90;;;;;;4982564;28;20709;-81
2022/07/16 01:18:45;;;;;;;1.58;0.60;;;11.30;99.90;;;;;;5014505;28;20449;-81
2022/07/16 01:21:14;;;;;;;2.67;0.60;;;11.40;99.90;;;;;;4992006;28;20811;-81
2022/07/16 01:23:45;;;;;;;3.20;0.70;;;11.40;99.90;;;;;;4993046;28;20407;-81
2022/07/16 01:26:13;;;;;;;1.33;0.52;;;11.30;99.90;;;;;;4976861;28;20756;-81
2022/07/16 01:28:41;;;;;;;2.38;0.75;;;11.20;99.90;;;;;;4993149;28;20739;-79
2022/07/16 01:31:09;;;;;;;4.10;0.80;;;11.20;99.90;;;;;;4993056;28;20397;-81
2022/07/16 01:33:39;;;;;;;3.40;0.70;;;11.30;99.90;;;;;;4994070;28;20476;-81
2022/07/16 01:36:11;;;;;;;2.00;0.60;;;11.30;99.90;;;;;;4994129;28;20393;-81
2022/07/16 01:38:42;;;;;;;3.83;0.90;;;11.20;99.90;;;;;;4976880;28;20393;-81
2022/07/16 01:41:11;;;;;;;3.42;0.60;;;11.20;99.90;;;;;;4992916;28;20389;-82
2022/07/16 01:43:39;;;;;;;3.38;0.70;;;11.10;99.90;;;;;;4976966;28;20751;-81
2022/07/16 01:46:06;;;;;;;3.83;0.75;;;10.90;99.90;;;;;;4976479;28;20408;-81
2022/07/16 01:48:34;;;;;;;2.20;0.77;;;10.90;99.90;;;;;;4993781;28;20412;-82
2022/07/16 01:51:02;;;;;;;2.25;0.70;;;11.00;99.90;;;;;;4994085;28;20396;-81
2022/07/16 01:53:29;;;;;;;3.35;0.70;;;11.00;99.90;;;;;;4992370;28;20751;-81
2022/07/16 01:55:59;;;;;;;4.43;1.20;;;11.10;99.90;;;;;;4993815;28;20443;-81
2022/07/16 01:58:31;;;;;;;3.00;0.65;;;11.10;99.90;;;;;;4976957;28;20389;-81
2022/07/16 02:00:59;;;;;;;3.40;0.80;;;11.10;99.90;;;;;;4993600;28;20411;-81
2022/07/16 02:03:27;;;;;;;2.43;0.70;;;11.10;99.90;;;;;;4992244;28;20397;-82
2022/07/16 02:05:55;;;;;;;1.95;0.70;;;11.10;99.90;;;;;;4992322;28;20404;-81
2022/07/16 02:08:22;;;;;;;1.58;0.70;;;11.10;99.90;;;;;;5008485;28;20408;-82
2022/07/16 02:10:50;;;;;;;3.50;0.90;;;11.00;99.90;;;;;;4992275;28;20403;-81
2022/07/16 02:13:17;;;;;;;4.35;0.70;;;11.10;99.90;;;;;;4993308;28;20397;-81
2022/07/16 02:15:45;;;;;;;3.53;0.65;;;11.00;99.90;;;;;;5008311;28;20895;-82
2022/07/16 02:18:12;;;;;;;1.67;0.70;;;11.00;99.90;;;;;;4991946;28;20397;-81
2022/07/16 02:20:40;;;;;;;3.42;0.90;;;11.00;99.90;;;;;;4993123;28;20528;-81
2022/07/16 02:23:07;;;;;;;2.03;0.80;;;11.00;99.90;;;;;;4991673;28;20467;-82
2022/07/16 02:25:35;;;;;;;3.08;0.88;;;11.00;99.90;;;;;;4975792;28;20858;-81
2022/07/16 02:28:05;;;;;;;3.42;0.80;;;11.00;99.90;;;;;;5008065;28;20424;-82
2022/07/16 02:30:45;;;;;;;2.17;0.83;;;11.00;99.90;;;;;;4992955;28;20420;-80
2022/07/16 02:33:16;;;;;;;4.63;0.73;;;11.00;99.90;;;;;;4992940;28;20463;-81
2022/07/16 02:35:44;;;;;;;2.60;0.70;;;11.00;99.90;;;;;;4991817;28;20945;-81
2022/07/16 02:38:13;;;;;;;2.65;0.60;;;11.00;99.90;;;;;;4991598;28;20400;-81
2022/07/16 02:40:42;;;;;;;3.50;0.70;;;11.00;99.90;;;;;;4975643;28;20415;-81
2022/07/16 02:43:11;;;;;;;5.28;0.85;;;11.00;99.90;;;;;;4992852;28;20476;-81
2022/07/16 02:45:42;;;;;;;2.33;0.85;;;11.00;99.90;;;;;;4992698;28;20898;-80
2022/07/16 02:48:11;;;;;;;3.33;0.73;;;10.90;99.90;;;;;;4992990;28;20389;-80
2022/07/16 02:50:39;;;;;;;4.85;0.88;;;11.00;99.90;;;;;;4992599;28;20393;-82
2022/07/16 02:53:07;;;;;;;2.53;0.90;;;10.90;99.90;;;;;;4992627;28;20416;-82
2022/07/16 02:55:35;;;;;;;2.97;0.80;;;10.90;99.90;;;;;;4992597;28;20396;-81
2022/07/16 02:58:02;;;;;;;3.13;0.80;;;10.90;99.90;;;;;;4992527;28;20483;-81
2022/07/16 03:00:30;;;;;;;4.65;0.80;;;10.80;99.90;;;;;;4992468;28;20401;-81
2022/07/16 03:02:58;;;;;;;4.13;0.90;;;10.80;99.90;;;;;;4975351;28;20438;-82
2022/07/16 03:05:27;;;;;;;2.93;1.00;;;10.70;99.90;;;;;;4975344;28;20392;-81
2022/07/16 03:07:54;;;;;;;2.70;0.70;;;10.80;99.90;;;;;;4992378;28;20480;-82
2022/07/16 03:10:23;;;;;;;1.92;0.70;;;10.70;99.90;;;;;;4992377;28;20872;-82
2022/07/16 03:12:51;;;;;;;1.77;0.63;;;10.70;99.90;;;;;;4992376;28;20804;-81
2022/07/16 03:15:18;;;;;;;3.25;0.85;;;10.70;99.90;;;;;;4986091;28;20407;-81
2022/07/16 03:17:46;;;;;;;4.05;0.80;;;10.80;99.90;;;;;;5012224;28;20403;-82
2022/07/16 03:20:13;;;;;;;4.45;0.90;;;10.90;99.90;;;;;;5010588;28;20457;-80
2022/07/16 03:22:46;;;;;;;3.08;0.75;;;10.90;99.90;;;;;;5026776;28;20403;-82
2022/07/16 03:25:17;;;;;;;4.80;0.90;;;10.90;99.90;;;;;;4975789;28;20875;-82
2022/07/16 03:27:45;;;;;;;2.90;1.00;;;11.00;99.90;;;;;;4990980;28;20479;-82
2022/07/16 03:30:14;;;;;;;3.07;0.93;;;11.00;99.90;;;;;;5002242;28;20399;-80
2022/07/16 03:32:42;;;;;;;2.57;0.90;;;11.00;99.90;;;;;;4994336;28;20470;-82
2022/07/16 03:35:12;;;;;;;2.85;1.02;;;11.00;99.90;;;;;;5026761;28;20393;-82
2022/07/16 03:40:27;;;;;;;4.17;0.80;;;11.00;99.90;;;;;;5010283;28;20777;-82
2022/07/16 03:42:55;;;;;;;4.18;1.10;;;11.00;99.90;;;;;;5011582;28;20474;-80
2022/07/16 03:45:23;;;;;;;2.47;0.93;;;10.90;99.90;;;;;;5013858;28;20395;-81
2022/07/16 03:47:51;;;;;;;5.22;1.17;;;10.90;99.90;;;;;;5015600;28;20449;-81
2022/07/16 03:50:19;;;;;;;4.78;1.50;;;11.00;99.90;;;;;;5015576;28;20391;-82
2022/07/16 03:52:47;;;;;;;3.13;1.30;;;11.00;99.90;;;;;;5030915;28;20437;-82
2022/07/16 03:55:15;;;;;;;1.42;1.00;;;10.90;99.90;;;;;;5015444;28;20860;-81
2022/07/16 03:57:43;;;;;;;3.00;1.23;;;10.90;99.90;;;;;;5015449;28;20475;-81
2022/07/16 04:00:12;;;;;;;2.53;1.00;;;10.80;99.90;;;;;;5015399;28;20419;-81
2022/07/16 04:02:40;;;;;;;2.55;1.10;;;10.70;99.90;;;;;;5015524;28;20384;-82
2022/07/16 04:05:08;;;;;;;2.80;0.90;;;10.80;99.90;;;;;;5030470;28;20739;-81
2022/07/16 04:07:36;;;;;;;1.65;1.00;;;10.90;99.90;;;;;;5015268;28;20438;-81
2022/07/16 04:10:04;;;;;;;2.97;1.15;;;10.80;99.90;;;;;;5013901;28;20770;-81
2022/07/16 04:12:32;;;;;;;2.97;1.00;;;10.90;99.90;;;;;;5015184;28;20425;-82
2022/07/16 04:15:00;;;;;;;3.30;1.00;;;10.80;99.90;;;;;;5015003;28;20487;-81
2022/07/16 04:17:28;;;;;;;3.40;0.88;;;10.80;99.90;;;;;;5015093;28;20465;-81
2022/07/16 04:19:56;;;;;;;4.70;1.00;;;10.70;99.90;;;;;;5014923;28;20469;-81
2022/07/16 04:22:23;;;;;;;3.17;1.08;;;10.70;99.90;;;;;;5014975;28;20395;-82
2022/07/16 04:24:54;;;;;;;3.92;1.20;;;10.80;99.90;;;;;;5001417;28;20850;-81
2022/07/16 04:27:22;;;;;;;2.00;0.80;;;10.90;99.90;;;;;;5014932;28;20908;-81
2022/07/16 04:29:49;;;;;;;5.05;0.90;;;10.90;99.90;;;;;;4997410;28;20944;-81
2022/07/16 04:32:17;;;;;;;5.72;1.15;;;11.00;99.90;;;;;;5014889;28;20398;-81
2022/07/16 04:34:44;;;;;;;2.92;1.00;;;10.90;99.90;;;;;;5000305;28;20392;-81
2022/07/16 04:37:13;;;;;;;2.88;0.88;;;10.80;99.90;;;;;;4993950;28;20887;-81
2022/07/16 04:39:40;;;;;;;1.52;0.80;;;10.70;99.90;;;;;;4977595;28;20409;-81
2022/07/16 04:42:08;;;;;;;3.83;0.82;;;10.70;99.90;;;;;;4993854;28;20815;-80
2022/07/16 04:44:36;;;;;;;3.30;1.00;;;10.80;99.90;;;;;;4994945;28;20416;-81
2022/07/16 04:47:04;;;;;;;2.70;0.70;;;10.90;99.90;;;;;;4994126;28;20480;-81
2022/07/16 04:49:31;;;;;;;2.35;0.73;;;10.90;99.90;;;;;;4994930;28;20472;-81
2022/07/16 04:51:59;;;;;;;2.47;0.75;;;10.90;99.90;;;;;;4994831;28;20479;-81
2022/07/16 04:54:27;;;;;;;1.90;0.70;;;11.00;99.90;;;;;;4994805;28;20871;-81
2022/07/16 04:56:54;;;;;;;2.50;0.70;;;11.00;99.90;;;;;;4993518;28;20732;-81
2022/07/16 04:59:22;;;;;;;2.38;0.70;;;11.00;99.90;;;;;;4994683;28;20389;-81
2022/07/16 05:01:50;;;;;;;3.13;0.70;;;11.00;99.90;;;;;;5009787;28;20895;-81
2022/07/16 05:04:18;;;;;;;3.78;0.60;;;11.10;99.90;;;;;;4993319;28;20448;-81
2022/07/16 05:06:46;;;;;;;2.28;0.77;;;11.10;99.90;;;;;;4994622;28;20412;-81
2022/07/16 05:09:13;;;;;;;3.47;0.80;;;11.10;99.90;;;;;;4993726;28;20910;-80
2022/07/16 05:11:41;;;;;;;3.05;0.90;;;11.10;99.90;;;;;;4994524;28;20800;-81
2022/07/16 05:14:08;;;;;;;5.28;0.70;;;11.20;99.90;;;;;;4994659;28;20447;-81
2022/07/16 05:16:36;;;;;;;2.53;0.63;;;11.20;99.90;;;;;;4994488;28;20837;-81
2022/07/16 05:19:04;;;;;;;1.83;0.73;;;11.20;99.90;;;;;;4994515;28;20393;-81
2022/07/16 05:21:31;;;;;;;1.67;0.63;;;11.30;99.90;;;;;;4993175;28;21024;-81
2022/07/16 05:23:59;;;;;;;2.00;0.60;;;11.30;99.90;;;;;;4994267;28;20396;-81
2022/07/16 05:26:27;;;;;;;3.30;0.70;;;11.40;99.90;;;;;;4993065;28;20816;-80
2022/07/16 05:28:54;;;;;;;3.97;0.77;;;11.30;99.90;;;;;;4992972;28;20868;-80
2022/07/16 05:31:22;;;;;;;1.95;0.73;;;11.30;99.90;;;;;;4994233;28;20477;-80
2022/07/16 05:33:49;;;;;;;4.07;0.70;;;11.30;99.90;;;;;;4994148;28;20393;-82
2022/07/16 05:36:18;;;;;;;2.33;0.70;;;11.40;99.90;;;;;;4994116;28;20401;-82
2022/07/16 05:38:46;;;;;;;2.92;0.82;;;11.40;99.90;;;;;;4993949;28;20871;-82
2022/07/16 05:41:14;;;;;;;2.03;0.65;;;11.50;99.90;;;;;;4993897;28;20419;-82
2022/07/16 05:43:41;;;;;;;3.60;0.70;;;11.50;99.90;;;;;;5002613;28;20443;-81
2022/07/16 05:46:09;;;;;;;2.80;0.50;;;11.50;99.90;;;;;;5013447;28;20479;-82
2022/07/16 05:48:36;;;;;;;3.40;0.90;;;11.60;99.90;;;;;;4995956;28;20387;-81
2022/07/16 05:51:05;;;;;;;2.57;0.70;;;11.60;99.90;;;;;;4994147;28;20417;-81
2022/07/16 05:53:32;;;;;;;3.22;0.90;;;11.60;99.90;;;;;;5001834;28;20393;-81
2022/07/16 05:56:00;;;;;;;1.93;0.60;;;11.70;99.90;;;;;;5008765;28;20910;-81
2022/07/16 05:58:28;;;;;;;1.35;0.50;;;11.80;99.90;;;;;;4992476;28;20447;-81
2022/07/16 06:00:56;;;;;;;2.88;0.70;;;11.70;99.90;;;;;;4988692;28;20414;-81
2022/07/16 06:03:23;;;;;;;2.40;0.57;;;11.80;99.90;;;;;;5012133;28;20972;-82
2022/07/16 06:05:51;;;;;;;3.47;0.60;;;11.90;99.90;;;;;;4995760;28;20418;-82
2022/07/16 06:08:19;;;;;;;4.25;1.35;;;11.90;99.90;;;;;;4995198;28;20470;-81
2022/07/16 06:10:46;;;;;;;4.70;0.70;;;12.00;99.90;;;;;;5013223;28;20391;-81
2022/07/16 06:13:14;;;;;;;3.53;0.77;;;12.10;99.90;;;;;;5002739;28;20756;-82
2022/07/16 06:15:42;;;;;;;3.33;0.80;;;12.10;99.90;;;;;;5008864;28;20419;-82
2022/07/16 06:18:09;;;;;;;4.03;1.23;;;12.20;99.90;;;;;;5012764;28;20450;-82
2022/07/16 06:20:37;;;;;;;2.00;0.70;;;12.20;99.90;;;;;;5012746;28;20901;-80
2022/07/16 06:23:05;;;;;;;2.42;0.75;;;12.30;99.90;;;;;;5012615;28;20960;-81
2022/07/16 06:25:33;;;;;;;1.90;0.80;;;12.40;99.90;;;;;;4993370;28;20478;-82
2022/07/16 06:28:00;;;;;;;2.80;0.60;;;12.50;99.90;;;;;;5023394;28;20383;-81
2022/07/16 06:30:28;;;;;;;2.20;0.90;;;12.50;99.90;;;;;;5012675;28;20406;-81
2022/07/16 06:32:56;;;;;;;2.97;0.70;;;12.50;99.90;;;;;;4995085;28;20730;-81
2022/07/16 06:35:23;;;;;;;3.15;0.70;;;12.60;99.90;;;;;;4995266;28;20418;-83
2022/07/16 06:37:51;;;;;;;3.30;0.80;;;12.60;99.90;;;;;;5012471;28;20399;-83
2022/07/16 06:40:19;;;;;;;1.52;0.50;;;12.60;99.90;;;;;;5012356;28;20486;-83
2022/07/16 06:42:46;;;;;;;3.90;0.85;;;12.80;99.90;;;;;;5012448;28;20972;-83
2022/07/16 06:45:14;;;;;;;5.32;0.80;;;12.80;99.90;;;;;;5012269;28;20398;-83
2022/07/16 06:47:41;;;;;;;1.77;0.68;;;12.80;99.90;;;;;;4994200;28;20395;-82
2022/07/16 06:50:10;;;;;;;1.92;0.50;;;12.90;99.90;;;;;;5012418;28;20537;-82
2022/07/16 06:52:38;;;;;;;4.40;0.80;;;13.00;99.90;;;;;;4993352;28;20422;-82
2022/07/16 06:55:07;;;;;;;1.42;0.60;;;13.00;99.90;;;;;;4993152;28;20407;-82
2022/07/16 06:57:35;;;;;;;1.80;0.60;;;13.10;99.90;;;;;;5008792;28;20665;-82
2022/07/16 07:00:03;;;;;;;2.40;0.70;;;13.00;99.90;;;;;;5019957;28;20432;-82
2022/07/16 07:02:31;;;;;;;3.28;0.70;;;13.10;99.90;;;;;;5010853;28;20948;-84
2022/07/16 07:04:59;;;;;;;4.40;0.70;;;13.20;99.90;;;;;;5011929;28;20395;-83
2022/07/16 07:07:26;;;;;;;2.53;0.63;;;13.20;99.90;;;;;;5012422;28;20397;-83
2022/07/16 07:09:54;;;;;;;3.20;0.65;;;13.30;99.90;;;;;;5012062;28;20470;-83
2022/07/16 07:12:22;;;;;;;1.90;0.70;;;13.50;99.90;;;;;;5027152;28;20873;-82
2022/07/16 07:14:49;;;;;;;1.88;0.70;;;13.50;99.90;;;;;;5011995;28;20425;-83
2022/07/16 07:17:17;;;;;;;1.38;0.55;;;13.60;99.90;;;;;;5009699;28;20777;-82
2022/07/16 07:19:45;;;;;;;2.75;0.60;;;13.60;99.90;;;;;;5010577;28;20481;-83
2022/07/16 07:22:13;;;;;;;2.50;0.60;;;13.60;99.90;;;;;;5006020;28;20414;-83
2022/07/16 07:24:40;;;;;;;4.97;2.72;;;13.50;99.90;;;;;;5011771;28;20502;-82
2022/07/16 07:27:15;;;;;;;2.40;0.80;;;13.60;99.90;;;;;;4994420;28;20442;-83
2022/07/16 07:29:43;;;;;;;1.65;0.60;;;13.60;99.90;;;;;;4994139;28;20813;-84
2022/07/16 07:32:11;;;;;;;2.63;0.68;;;13.70;99.90;;;;;;4991248;28;20407;-83
2022/07/16 07:34:38;;;;;;;4.50;0.70;;;13.80;99.90;;;;;;4992405;28;20416;-82
2022/07/16 07:37:06;;;;;;;3.60;0.80;;;13.80;99.90;;;;;;4992182;28;20447;-84
2022/07/16 07:39:34;;;;;;;1.58;0.60;;;14.00;99.90;;;;;;4992513;28;20388;-82
2022/07/16 07:42:02;;;;;;;3.05;0.68;;;14.10;99.90;;;;;;4992274;28;20424;-83
2022/07/16 07:44:29;;;;;;;2.08;0.60;;;13.90;99.90;;;;;;4981434;28;20402;-82
2022/07/16 07:46:57;;;;;;;1.35;0.50;;;13.90;99.90;;;;;;5001109;28;20395;-83
2022/07/16 07:49:25;;;;;;;2.70;0.60;;;14.00;99.90;;;;;;4990034;28;20404;-83
2022/07/16 07:51:54;;;;;;;4.07;0.53;;;14.00;99.90;;;;;;4990796;28;20396;-84
2022/07/16 07:54:21;;;;;;;3.63;0.60;;;13.90;99.90;;;;;;4990041;28;20401;-82
2022/07/16 07:56:49;;;;;;;1.25;0.60;;;13.90;99.90;;;;;;4990436;28;20551;-82
2022/07/16 07:59:17;;;;;;;2.55;0.70;;;13.90;99.90;;;;;;4973828;28;20418;-84
2022/07/16 08:01:45;;;;;;;1.85;0.60;;;14.20;99.90;;;;;;4991123;28;20420;-84
2022/07/16 08:04:12;;;;;;;2.92;0.60;;;14.20;99.90;;;;;;4973838;28;20451;-83
2022/07/16 08:06:40;;;;;;;2.42;0.70;;;14.30;99.90;;;;;;4974979;28;20805;-83
2022/07/16 08:09:08;;;;;;;1.80;0.60;;;14.50;99.90;;;;;;4992132;28;20395;-83
2022/07/16 08:11:35;;;;;;;2.75;0.50;;;14.50;99.90;;;;;;4991906;28;20427;-82
2022/07/16 08:14:03;;;;;;;1.57;0.60;;;14.40;99.90;;;;;;4991733;28;20393;-82
2022/07/16 08:16:51;;;;;;;2.33;0.50;;;14.60;99.90;;;;;;4991736;28;20459;-83
2022/07/16 08:19:19;;;;;;;2.35;0.60;;;14.70;99.90;;;;;;4991772;28;20397;-83
2022/07/16 08:21:47;;;;;;;2.88;0.80;;;14.70;99.90;;;;;;4974222;28;20911;-83
2022/07/16 08:27:02;;;;;;;2.70;0.50;;;14.80;99.90;;;;;;5006818;28;20970;-85
2022/07/16 08:29:30;;;;;;;1.40;0.50;;;14.90;99.90;;;;;;4991722;28;20389;-84
2022/07/16 08:31:57;;;;;;;1.75;0.50;;;15.00;99.90;;;;;;4977395;28;20404;-84
2022/07/16 08:34:25;;;;;;;1.48;0.50;;;14.90;99.90;;;;;;5010180;28;20919;-83
2022/07/16 08:36:53;;;;;;;1.48;0.43;;;14.90;99.90;;;;;;4995271;28;20397;-83
2022/07/16 08:39:21;;;;;;;1.97;0.40;;;14.90;99.90;;;;;;4995304;28;20879;-82
2022/07/16 08:41:50;;;;;;;1.87;0.47;;;15.00;99.90;;;;;;4995033;28;20413;-83
2022/07/16 08:44:18;;;;;;;1.73;0.70;;;15.10;99.90;;;;;;4995167;28;20447;-83
2022/07/16 08:46:46;;;;;;;3.93;0.70;;;15.10;99.90;;;;;;5009990;28;20875;-82
2022/07/16 08:49:15;;;;;;;2.23;0.43;;;15.00;99.90;;;;;;5010011;28;20389;-82
2022/07/16 08:51:42;;;;;;;2.30;0.50;;;14.80;99.90;;;;;;5009937;28;20500;-83
2022/07/16 08:54:15;;;;;;;4.35;0.80;;;14.80;99.90;;;;;;4993663;28;20399;-83
2022/07/16 08:56:43;;;;;;;3.00;0.55;;;14.80;99.90;;;;;;5009886;28;20428;-82
2022/07/16 08:59:13;;;;;;;1.63;0.43;;;14.90;99.90;;;;;;5009765;28;20918;-84
2022/07/16 09:01:41;;;;;;;2.42;0.60;;;15.10;99.90;;;;;;5009835;28;20444;-84
2022/07/16 09:04:09;;;;;;;0.98;0.40;;;15.30;99.90;;;;;;4993480;28;20519;-85
2022/07/16 09:06:37;;;;;;;1.88;0.50;;;15.60;99.90;;;;;;5009625;28;20397;-81
2022/07/16 09:09:05;;;;;;;0.70;0.50;;;15.60;99.90;;;;;;4994616;28;20883;-84
2022/07/16 09:11:35;;;;;;;2.42;0.77;;;15.50;99.90;;;;;;5009882;28;20400;-83
2022/07/16 09:14:11;;;;;;;2.20;0.50;;;15.50;99.90;;;;;;4994569;28;20927;-85
2022/07/16 09:16:42;;;;;;;4.43;0.88;;;15.60;99.90;;;;;;5009639;28;20401;-84
2022/07/16 09:19:18;;;;;;;1.40;0.50;;;15.80;99.90;;;;;;4994549;28;20755;-84
2022/07/16 09:22:05;;;;;;;2.97;0.57;;;15.90;99.90;;;;;;4994181;28;20528;-83
2022/07/16 09:24:34;;;;;;;1.60;0.50;;;16.00;99.90;;;;;;4993235;28;20413;-84
2022/07/16 09:27:06;;;;;;;2.00;0.60;;;15.90;99.90;;;;;;4993280;28;20413;-84
2022/07/16 09:29:35;;;;;;;1.40;0.40;;;15.60;99.90;;;;;;4994443;28;20384;-83
2022/07/16 09:32:03;;;;;;;2.38;0.43;;;15.50;99.90;;;;;;4994369;28;20397;-83
2022/07/16 09:34:32;;;;;;;1.00;0.50;;;15.40;99.90;;;;;;4994385;28;20480;-83
2022/07/16 09:37:02;;;;;;;2.80;0.50;;;15.30;99.90;;;;;;4994374;28;20398;-84
2022/07/16 09:39:32;;;;;;;1.30;0.47;;;15.30;99.90;;;;;;4977132;28;20863;-84
2022/07/16 09:42:00;;;;;;;2.03;0.60;;;15.30;99.90;;;;;;4975949;28;20536;-85
2022/07/16 09:44:32;;;;;;;1.10;0.50;;;15.40;99.90;;;;;;4994248;28;20393;-85
2022/07/16 09:47:03;;;;;;;3.30;0.50;;;15.50;99.90;;;;;;4994038;28;20389;-85
2022/07/16 09:49:34;;;;;;;2.70;0.70;;;15.60;99.90;;;;;;5009092;28;20389;-85
2022/07/16 09:52:02;;;;;;;2.00;0.63;;;15.60;99.90;;;;;;4994093;28;20393;-83
2022/07/16 09:54:35;;;;;;;1.40;0.50;;;15.50;99.90;;;;;;4992505;28;20403;-85
2022/07/16 09:57:18;;;;;;;3.47;0.60;;;15.60;99.90;;;;;;4993999;28;20823;-84
2022/07/16 09:59:47;;;;;;;1.73;0.50;;;15.50;99.90;;;;;;4993861;28;20399;-85
2022/07/16 10:02:29;;;;;;;2.40;0.70;;;15.50;99.90;;;;;;4993770;28;20409;-84
2022/07/16 10:04:58;;;;;;;2.87;0.43;;;15.90;99.90;;;;;;4993816;28;20389;-85
2022/07/16 10:07:32;;;;;;;3.35;0.60;;;16.10;99.90;;;;;;4994076;28;20392;-85
2022/07/16 10:10:00;;;;;;;2.37;0.67;;;16.20;99.90;;;;;;4993608;28;20385;-82
2022/07/16 10:12:29;;;;;;;2.47;0.40;;;16.30;99.90;;;;;;4993707;28;20404;-85
2022/07/16 10:14:58;;;;;;;1.65;0.60;;;16.10;99.90;;;;;;4993376;28;20408;-85
2022/07/16 10:17:35;;;;;;;2.20;0.60;;;16.00;99.90;;;;;;4992514;28;20488;-84
2022/07/16 10:20:11;;;;;;;3.60;0.60;;;15.80;99.90;;;;;;4993536;28;20396;-84
2022/07/16 10:22:42;;;;;;;2.38;0.77;;;15.70;99.90;;;;;;4993121;28;20424;-83
2022/07/16 10:25:19;;;;;;;2.88;0.70;;;15.40;99.90;;;;;;5008305;28;20389;-83
2022/07/16 10:27:47;;;;;;;2.38;0.80;;;15.10;99.90;;;;;;4976301;28;20459;-84
2022/07/16 10:30:22;;;;;;;4.13;0.70;;;15.00;99.90;;;;;;4993468;28;20469;-84
2022/07/16 10:33:10;;;;;;;2.72;0.85;;;15.00;99.90;;;;;;4993359;28;20401;-82
2022/07/16 10:35:43;;;;;;;1.58;0.75;;;15.00;99.90;;;;;;4993075;28;20852;-84
2022/07/16 10:38:14;;;;;;;3.08;0.77;;;15.20;99.90;;;;;;4975695;28;20456;-83
2022/07/16 10:41:15;;;;;;;2.50;0.70;;;15.30;99.90;;;;;;5008004;28;20397;-84
2022/07/16 10:44:10;;;;;;;1.00;0.52;;;15.60;99.90;;;;;;4992826;28;20396;-84
2022/07/16 10:46:56;;;;;;;2.95;0.60;;;15.70;99.90;;;;;;4991726;28;20416;-83
2022/07/16 10:49:25;;;;;;;1.75;0.70;;;15.70;99.90;;;;;;4991588;28;21067;-84
2022/07/16 10:52:05;;;;;;;1.75;0.57;;;15.80;99.90;;;;;;4975586;28;20476;-84
2022/07/16 10:54:38;;;;;;;4.18;0.70;;;15.80;99.90;;;;;;4991593;28;20399;-84
2022/07/16 10:57:11;;;;;;;3.55;0.70;;;15.90;99.90;;;;;;4992782;28;20480;-84
2022/07/16 10:59:46;;;;;;;2.30;0.60;;;16.00;99.90;;;;;;4991550;28;20508;-85
2022/07/16 11:02:17;;;;;;;2.90;0.80;;;16.10;99.90;;;;;;4975863;28;20463;-84
2022/07/16 11:04:53;;;;;;;1.90;0.63;;;16.00;99.90;;;;;;4992638;28;20428;-83
2022/07/16 11:07:22;;;;;;;2.40;0.70;;;16.10;99.90;;;;;;4992711;28;20444;-85
2022/07/16 11:09:52;;;;;;;3.72;0.60;;;16.20;99.90;;;;;;4992752;28;20393;-84
2022/07/16 11:12:26;;;;;;;1.50;0.60;;;16.40;99.90;;;;;;4975332;28;20397;-85
2022/07/16 11:14:56;;;;;;;2.70;0.88;;;16.70;99.90;;;;;;4992416;28;20919;-83
2022/07/16 11:17:28;;;;;;;3.28;0.90;;;16.80;99.90;;;;;;4991349;28;20389;-84
2022/07/16 11:19:59;;;;;;;1.35;0.70;;;16.70;99.90;;;;;;4992490;28;20819;-83
2022/07/16 11:22:29;;;;;;;2.00;0.88;;;16.80;99.90;;;;;;4992509;28;20840;-83
2022/07/16 11:25:03;;;;;;;1.70;0.80;;;17.00;99.90;;;;;;4992415;28;20396;-85
2022/07/16 11:27:33;;;;;;;1.10;0.60;;;17.00;99.90;;;;;;4992553;28;20389;-85
2022/07/16 11:30:06;;;;;;;1.33;0.65;;;16.90;99.90;;;;;;4991188;28;20913;-84
2022/07/16 11:32:42;;;;;;;1.42;0.70;;;17.00;99.90;;;;;;4992392;28;20420;-84
2022/07/16 11:35:10;;;;;;;1.08;0.65;;;17.20;99.90;;;;;;4991252;28;20396;-83
2022/07/16 11:37:56;;;;;;;2.08;0.63;;;17.30;99.90;;;;;;4991224;28;20483;-84
2022/07/16 11:40:35;;;;;;;1.70;0.55;;;17.50;99.90;;;;;;4975663;28;20906;-84
2022/07/16 11:43:03;;;;;;;2.15;0.65;;;17.50;99.90;;;;;;4974897;28;20683;-84
2022/07/16 11:45:41;;;;;;;2.88;0.77;;;17.60;99.90;;;;;;4992172;28;20389;-84
2022/07/16 11:48:13;;;;;;;2.05;0.70;;;17.60;99.90;;;;;;4992147;28;20815;-84
2022/07/16 11:50:42;;;;;;;3.22;0.60;;;17.50;99.90;;;;;;5007205;28;20388;-82
2022/07/16 11:53:11;;;;;;;1.85;0.60;;;17.40;99.90;;;;;;4992050;28;20732;-84
2022/07/16 11:55:46;;;;;;;1.85;0.60;;;17.60;99.90;;;;;;4992352;28;20431;-83
2022/07/16 11:58:15;;;;;;;3.20;0.80;;;17.80;99.90;;;;;;4992037;28;20393;-84
2022/07/16 12:00:48;;;;;;;1.77;0.75;;;17.90;99.90;;;;;;4993951;28;20433;-84
2022/07/16 12:03:17;;;;;;;2.30;0.80;;;18.10;99.90;;;;;;5011853;28;20486;-83
2022/07/16 12:05:45;;;;;;;3.40;0.98;;;18.00;99.90;;;;;;5012777;28;20418;-85
2022/07/16 12:08:13;;;;;;;1.08;0.75;;;18.20;99.90;;;;;;5015559;28;20387;-84
2022/07/16 12:11:01;;;;;;;3.83;0.77;;;18.20;99.90;;;;;;5015488;28;20838;-84
2022/07/16 12:13:29;;;;;;;1.67;0.50;;;18.40;99.90;;;;;;5015783;28;20895;-85
2022/07/16 12:15:59;;;;;;;2.93;0.60;;;18.20;99.90;;;;;;5014025;28;20495;-83
2022/07/16 12:18:27;;;;;;;1.65;0.60;;;17.90;99.90;;;;;;5030542;28;20865;-82
2022/07/16 12:21:28;;;;;;;1.42;0.60;;;17.80;99.90;;;;;;5015129;28;20498;-84
2022/07/16 12:23:57;;;;;;;2.83;0.70;;;17.70;99.90;;;;;;4997888;28;20422;-83
2022/07/16 12:26:36;;;;;;;1.80;0.63;;;17.60;99.90;;;;;;5014813;28;20474;-84
2022/07/16 12:29:06;;;;;;;1.75;0.70;;;17.40;99.90;;;;;;5015152;28;20387;-83
2022/07/16 12:31:38;;;;;;;3.50;0.60;;;17.40;99.90;;;;;;5029994;28;20391;-83
2022/07/16 12:34:07;;;;;;;1.85;0.65;;;17.30;99.90;;;;;;5013456;28;20461;-83
2022/07/16 12:36:38;;;;;;;2.50;0.70;;;17.30;99.90;;;;;;5029994;28;20889;-84
2022/07/16 12:39:11;;;;;;;1.80;0.90;;;17.20;99.90;;;;;;5014916;28;20441;-81
2022/07/16 12:41:40;;;;;;;1.50;0.50;;;17.10;99.90;;;;;;5014726;28;20397;-83
2022/07/16 12:44:14;;;;;;;2.22;0.65;;;17.10;99.90;;;;;;5014762;28;20395;-83
2022/07/16 12:46:50;;;;;;;1.02;0.50;;;16.90;99.90;;;;;;5014749;28;20391;-82
2022/07/16 12:49:24;;;;;;;1.65;0.60;;;16.90;99.90;;;;;;5013438;28;20972;-82
2022/07/16 12:51:59;;;;;;;1.58;0.70;;;16.90;99.90;;;;;;5013404;28;20454;-83
2022/07/16 12:58:47;;;;;;;1.70;0.85;;;16.80;99.90;;;;;;5013590;28;20395;-83
2022/07/16 13:00:04;;;;;;;1.97;0.83;;;16.50;99.90;;;;;;5014535;28;20490;-82
2022/07/16 13:02:31;;;;;;;2.65;0.70;;;16.50;99.90;;;;;;5012900;28;20407;-83
2022/07/16 13:04:59;;;;;;;2.75;0.70;;;16.50;99.90;;;;;;5014449;28;20982;-83
2022/07/16 13:07:27;;;;;;;1.08;0.80;;;16.50;99.90;;;;;;5013270;28;20395;-82
2022/07/16 13:09:55;;;;;;;1.60;0.75;;;16.50;99.90;;;;;;4996598;28;20920;-84
2022/07/16 13:12:22;;;;;;;1.40;0.60;;;16.50;99.90;;;;;;5012376;28;20893;-83